sensor_id;sensor_type;location;lat;lon;timestamp;pressure;altitude;pressure_sealevel;temperature;humidity
20696;BME280;10507;52.754;13.040;2023-01-26T00:01:46;102138.13;;;0.15;100.00
20696;BME280;10507;52.754;13.040;2023-01-26T00:04:15;102132.03;;;0.16;100.00
20696;BME280;10507;52.754;13.040;2023-01-26T00:06:42;102158.41;;;0.24;100.00
20696;BME280;10507;52.754;13.040;2023-01-26T00:09:12;102129.50;;;0.24;100.00
20696;BME280;10507;52.754;13.040;2023-01-26T00:11:41;102070.72;;;0.14;100.00
20696;BME280;10507;52.754;13.040;2023-01-26T00:14:08;102126.03;;;0.26;100.00
20696;BME280;10507;52.754;13.040;2023-01-26T00:16:38;102083.06;;;0.21;100.00
20696;BME280;10507;52.754;13.040;2023-01-26T00:19:07;102080.47;;;0.24;100.00
20696;BME280;10507;52.754;13.040;2023-01-26T00:21:35;102056.81;;;0.21;100.00
20696;BME280;10507;52.754;13.040;2023-01-26T00:24:04;102020.84;;;0.17;100.00
20696;BME280;10507;52.754;13.040;2023-01-26T00:26:32;102032.31;;;0.24;100.00
20696;BME280;10507;52.754;13.040;2023-01-26T00:29:00;101986.63;;;0.11;100.00
20696;BME280;10507;52.754;13.040;2023-01-26T00:31:28;102029.66;;;0.22;100.00
20696;BME280;10507;52.754;13.040;2023-01-26T00:33:57;101996.34;;;0.18;100.00
20696;BME280;10507;52.754;13.040;2023-01-26T00:36:26;101997.25;;;0.18;100.00
20696;BME280;10507;52.754;13.040;2023-01-26T00:38:55;101977.97;;;0.18;100.00
20696;BME280;10507;52.754;13.040;2023-01-26T00:41:23;101981.50;;;0.20;100.00
20696;BME280;10507;52.754;13.040;2023-01-26T00:44:08;101982.38;;;0.19;100.00
20696;BME280;10507;52.754;13.040;2023-01-26T00:46:36;101948.16;;;0.14;100.00
20696;BME280;10507;52.754;13.040;2023-01-26T00:49:06;101980.66;;;0.21;100.00
20696;BME280;10507;52.754;13.040;2023-01-26T00:51:34;101956.06;;;0.16;100.00
20696;BME280;10507;52.754;13.040;2023-01-26T00:54:02;101927.06;;;0.08;100.00
20696;BME280;10507;52.754;13.040;2023-01-26T00:56:30;101949.00;;;0.12;100.00
20696;BME280;10507;52.754;13.040;2023-01-26T00:58:58;101922.66;;;0.06;100.00
20696;BME280;10507;52.754;13.040;2023-01-26T01:01:26;101950.75;;;0.11;100.00
20696;BME280;10507;52.754;13.040;2023-01-26T01:03:54;101952.47;;;0.09;100.00
20696;BME280;10507;52.754;13.040;2023-01-26T01:06:24;101977.97;;;0.18;100.00
20696;BME280;10507;52.754;13.040;2023-01-26T01:08:52;101970.03;;;0.15;100.00
20696;BME280;10507;52.754;13.040;2023-01-26T01:11:20;101989.38;;;0.20;100.00
20696;BME280;10507;52.754;13.040;2023-01-26T01:13:48;101980.69;;;0.23;100.00
20696;BME280;10507;52.754;13.040;2023-01-26T01:16:16;101982.41;;;0.22;100.00
20696;BME280;10507;52.754;13.040;2023-01-26T01:18:44;101973.66;;;0.22;100.00
20696;BME280;10507;52.754;13.040;2023-01-26T01:21:14;101899.84;;;0.02;100.00
20696;BME280;10507;52.754;13.040;2023-01-26T01:23:44;101894.56;;;-0.02;100.00
20696;BME280;10507;52.754;13.040;2023-01-26T01:26:13;101965.66;;;0.14;100.00
20696;BME280;10507;52.754;13.040;2023-01-26T01:28:42;101934.09;;;0.09;100.00
20696;BME280;10507;52.754;13.040;2023-01-26T01:31:12;101946.38;;;0.12;100.00
20696;BME280;10507;52.754;13.040;2023-01-26T01:33:43;101909.53;;;0.06;100.00
20696;BME280;10507;52.754;13.040;2023-01-26T01:36:13;101890.25;;;0.04;100.00
20696;BME280;10507;52.754;13.040;2023-01-26T01:38:44;101893.75;;;0.04;100.00
20696;BME280;10507;52.754;13.040;2023-01-26T01:41:15;101856.06;;;-0.01;100.00
20696;BME280;10507;52.754;13.040;2023-01-26T01:43:48;101868.44;;;0.08;100.00
20696;BME280;10507;52.754;13.040;2023-01-26T01:46:32;101856.16;;;0.05;100.00
20696;BME280;10507;52.754;13.040;2023-01-26T01:49:05;101843.88;;;0.03;100.00
20696;BME280;10507;52.754;13.040;2023-01-26T01:51:36;101889.47;;;0.09;100.00
20696;BME280;10507;52.754;13.040;2023-01-26T01:54:10;101882.50;;;0.13;100.00
20696;BME280;10507;52.754;13.040;2023-01-26T01:56:41;101830.75;;;0.03;100.00
20696;BME280;10507;52.754;13.040;2023-01-26T01:59:12;101798.13;;;-0.15;100.00
20696;BME280;10507;52.754;13.040;2023-01-26T02:01:40;101881.47;;;0.02;100.00
20696;BME280;10507;52.754;13.040;2023-01-26T02:04:09;101875.34;;;0.01;100.00
20696;BME280;10507;52.754;13.040;2023-01-26T02:06:39;101899.94;;;0.08;100.00
20696;BME280;10507;52.754;13.040;2023-01-26T02:09:12;101899.06;;;0.07;100.00
20696;BME280;10507;52.754;13.040;2023-01-26T02:12:31;101872.72;;;0.01;100.00
20696;BME280;10507;52.754;13.040;2023-01-26T02:15:00;101914.84;;;0.10;100.00
20696;BME280;10507;52.754;13.040;2023-01-26T02:17:29;101891.19;;;0.09;100.00
20696;BME280;10507;52.754;13.040;2023-01-26T02:20:02;101823.69;;;-0.02;100.00
20696;BME280;10507;52.754;13.040;2023-01-26T02:22:40;101894.72;;;0.11;100.00
20696;BME280;10507;52.754;13.040;2023-01-26T02:25:21;101857.00;;;0.04;100.00
20696;BME280;10507;52.754;13.040;2023-01-26T02:27:54;101838.53;;;-0.04;100.00
20696;BME280;10507;52.754;13.040;2023-01-26T02:30:23;101858.66;;;-0.04;100.00
20696;BME280;10507;52.754;13.040;2023-01-26T02:32:52;101851.59;;;-0.08;100.00
20696;BME280;10507;52.754;13.040;2023-01-26T02:35:20;101882.28;;;-0.03;100.00
20696;BME280;10507;52.754;13.040;2023-01-26T02:37:48;101877.00;;;-0.06;100.00
20696;BME280;10507;52.754;13.040;2023-01-26T02:40:24;101883.16;;;-0.04;100.00
20696;BME280;10507;52.754;13.040;2023-01-26T02:42:54;101847.13;;;-0.15;100.00
20696;BME280;10507;52.754;13.040;2023-01-26T02:45:22;101843.53;;;-0.22;100.00
20696;BME280;10507;52.754;13.040;2023-01-26T02:47:53;101903.16;;;-0.12;100.00
20696;BME280;10507;52.754;13.040;2023-01-26T02:50:21;101922.41;;;-0.11;100.00
20696;BME280;10507;52.754;13.040;2023-01-26T02:52:48;101934.72;;;-0.07;100.00
20696;BME280;10507;52.754;13.040;2023-01-26T02:55:16;101953.09;;;-0.07;100.00
20696;BME280;10507;52.754;13.040;2023-01-26T02:57:52;101890.84;;;-0.17;100.00
20696;BME280;10507;52.754;13.040;2023-01-26T03:00:24;101924.19;;;-0.10;100.00
20696;BME280;10507;52.754;13.040;2023-01-26T03:02:54;101875.03;;;-0.22;100.00
20696;BME280;10507;52.754;13.040;2023-01-26T03:05:24;101887.34;;;-0.18;100.00
20696;BME280;10507;52.754;13.040;2023-01-26T03:07:52;101884.66;;;-0.21;100.00
20696;BME280;10507;52.754;13.040;2023-01-26T03:10:22;101870.63;;;-0.25;100.00
20696;BME280;10507;52.754;13.040;2023-01-26T03:12:52;101893.44;;;-0.19;100.00
20696;BME280;10507;52.754;13.040;2023-01-26T03:15:25;101861.91;;;-0.22;100.00
20696;BME280;10507;52.754;13.040;2023-01-26T03:18:10;101852.09;;;-0.34;100.00
20696;BME280;10507;52.754;13.040;2023-01-26T03:20:55;101822.25;;;-0.44;100.00
20696;BME280;10507;52.754;13.040;2023-01-26T03:23:42;101885.34;;;-0.34;100.00
20696;BME280;10507;52.754;13.040;2023-01-26T03:26:28;101937.16;;;-0.21;100.00
20696;BME280;10507;52.754;13.040;2023-01-26T03:29:14;101943.34;;;-0.17;100.00
20696;BME280;10507;52.754;13.040;2023-01-26T03:31:43;101913.59;;;-0.18;100.00
20696;BME280;10507;52.754;13.040;2023-01-26T03:34:11;101864.47;;;-0.27;100.00
20696;BME280;10507;52.754;13.040;2023-01-26T03:36:39;101910.97;;;-0.16;100.00
20696;BME280;10507;52.754;13.040;2023-01-26T03:39:08;101899.59;;;-0.17;100.00
20696;BME280;10507;52.754;13.040;2023-01-26T03:41:56;101878.50;;;-0.23;100.00
20696;BME280;10507;52.754;13.040;2023-01-26T03:44:42;101884.63;;;-0.23;100.00
20696;BME280;10507;52.754;13.040;2023-01-26T03:47:30;101900.47;;;-0.18;100.00
20696;BME280;10507;52.754;13.040;2023-01-26T03:50:16;101833.81;;;-0.31;100.00
20696;BME280;10507;52.754;13.040;2023-01-26T03:53:01;101847.81;;;-0.27;100.00
20696;BME280;10507;52.754;13.040;2023-01-26T03:55:46;101838.19;;;-0.28;100.00
20696;BME280;10507;52.754;13.040;2023-01-26T03:58:32;101862.69;;;-0.28;100.00
20696;BME280;10507;52.754;13.040;2023-01-26T04:01:00;101829.41;;;-0.32;100.00
20696;BME280;10507;52.754;13.040;2023-01-26T04:03:30;101782.91;;;-0.44;100.00
20696;BME280;10507;52.754;13.040;2023-01-26T04:06:15;101839.81;;;-0.36;100.00
20696;BME280;10507;52.754;13.040;2023-01-26T04:09:00;101856.53;;;-0.31;100.00
20696;BME280;10507;52.754;13.040;2023-01-26T04:11:28;101856.53;;;-0.30;100.00
20696;BME280;10507;52.754;13.040;2023-01-26T04:13:56;101831.16;;;-0.32;100.00
20696;BME280;10507;52.754;13.040;2023-01-26T04:16:42;101886.41;;;-0.22;100.00
20696;BME280;10507;52.754;13.040;2023-01-26T04:19:28;101857.50;;;-0.23;100.00
20696;BME280;10507;52.754;13.040;2023-01-26T04:22:14;101839.13;;;-0.23;100.00
20696;BME280;10507;52.754;13.040;2023-01-26T04:24:43;101835.69;;;-0.19;100.00
20696;BME280;10507;52.754;13.040;2023-01-26T04:27:11;101805.94;;;-0.21;100.00
20696;BME280;10507;52.754;13.040;2023-01-26T04:29:39;101806.84;;;-0.19;100.00
20696;BME280;10507;52.754;13.040;2023-01-26T04:32:07;101769.13;;;-0.26;100.00
20696;BME280;10507;52.754;13.040;2023-01-26T04:34:37;101787.53;;;-0.24;100.00
20696;BME280;10507;52.754;13.040;2023-01-26T04:37:05;101772.56;;;-0.31;100.00
20696;BME280;10507;52.754;13.040;2023-01-26T04:39:33;101810.28;;;-0.25;100.00
20696;BME280;10507;52.754;13.040;2023-01-26T04:42:01;101810.28;;;-0.23;100.00
20696;BME280;10507;52.754;13.040;2023-01-26T04:44:29;101797.09;;;-0.28;100.00
20696;BME280;10507;52.754;13.040;2023-01-26T04:46:57;101833.06;;;-0.19;100.00
20696;BME280;10507;52.754;13.040;2023-01-26T04:49:25;101785.75;;;-0.25;100.00
20696;BME280;10507;52.754;13.040;2023-01-26T04:51:54;101821.69;;;-0.19;100.00
20696;BME280;10507;52.754;13.040;2023-01-26T04:54:22;101777.03;;;-0.24;100.00
20696;BME280;10507;52.754;13.040;2023-01-26T04:56:50;101743.66;;;-0.34;100.00
20696;BME280;10507;52.754;13.040;2023-01-26T04:59:18;101803.19;;;-0.30;100.00
20696;BME280;10507;52.754;13.040;2023-01-26T05:01:46;101782.09;;;-0.36;100.00
20696;BME280;10507;52.754;13.040;2023-01-26T05:04:14;101834.69;;;-0.27;100.00
20696;BME280;10507;52.754;13.040;2023-01-26T05:06:42;101838.25;;;-0.27;100.00
20696;BME280;10507;52.754;13.040;2023-01-26T05:09:12;101818.94;;;-0.30;100.00
20696;BME280;10507;52.754;13.040;2023-01-26T05:11:40;101797.84;;;-0.36;100.00
20696;BME280;10507;52.754;13.040;2023-01-26T05:14:08;101810.97;;;-0.36;100.00
20696;BME280;10507;52.754;13.040;2023-01-26T05:16:36;101819.75;;;-0.36;100.00
20696;BME280;10507;52.754;13.040;2023-01-26T05:19:04;101789.91;;;-0.41;100.00
20696;BME280;10507;52.754;13.040;2023-01-26T05:21:32;101816.22;;;-0.36;100.00
20696;BME280;10507;52.754;13.040;2023-01-26T05:24:00;101794.34;;;-0.37;100.00
20696;BME280;10507;52.754;13.040;2023-01-26T05:26:29;101799.63;;;-0.35;100.00
20696;BME280;10507;52.754;13.040;2023-01-26T05:28:57;101809.38;;;-0.27;100.00
20696;BME280;10507;52.754;13.040;2023-01-26T05:31:25;101768.19;;;-0.29;100.00
20696;BME280;10507;52.754;13.040;2023-01-26T05:33:53;101791.88;;;-0.26;100.00
20696;BME280;10507;52.754;13.040;2023-01-26T05:36:21;101758.59;;;-0.29;100.00
20696;BME280;10507;52.754;13.040;2023-01-26T05:38:51;101730.53;;;-0.34;100.00
20696;BME280;10507;52.754;13.040;2023-01-26T05:41:19;101713.00;;;-0.38;100.00
20696;BME280;10507;52.754;13.040;2023-01-26T05:43:49;101728.72;;;-0.40;100.00
20696;BME280;10507;52.754;13.040;2023-01-26T05:46:17;101703.34;;;-0.43;100.00
20696;BME280;10507;52.754;13.040;2023-01-26T05:48:45;101722.59;;;-0.40;100.00
20696;BME280;10507;52.754;13.040;2023-01-26T05:51:13;101721.75;;;-0.38;100.00
20696;BME280;10507;52.754;13.040;2023-01-26T05:53:41;101694.56;;;-0.45;100.00
20696;BME280;10507;52.754;13.040;2023-01-26T05:56:09;101713.84;;;-0.43;100.00
20696;BME280;10507;52.754;13.040;2023-01-26T05:58:38;101746.28;;;-0.36;100.00
20696;BME280;10507;52.754;13.040;2023-01-26T06:01:07;101738.38;;;-0.37;100.00
20696;BME280;10507;52.754;13.040;2023-01-26T06:03:35;101726.09;;;-0.42;100.00
20696;BME280;10507;52.754;13.040;2023-01-26T06:06:03;101739.28;;;-0.35;100.00
20696;BME280;10507;52.754;13.040;2023-01-26T06:08:31;101762.06;;;-0.33;100.00
20696;BME280;10507;52.754;13.040;2023-01-26T06:10:59;101754.16;;;-0.36;100.00
20696;BME280;10507;52.754;13.040;2023-01-26T06:13:28;101725.22;;;-0.40;100.00
20696;BME280;10507;52.754;13.040;2023-01-26T06:15:59;101763.75;;;-0.36;100.00
20696;BME280;10507;52.754;13.040;2023-01-26T06:18:28;101772.50;;;-0.34;100.00
20696;BME280;10507;52.754;13.040;2023-01-26T06:20:57;101699.75;;;-0.48;100.00
20696;BME280;10507;52.754;13.040;2023-01-26T06:23:26;101704.13;;;-0.51;100.00
20696;BME280;10507;52.754;13.040;2023-01-26T06:25:57;101739.09;;;-0.48;100.00
20696;BME280;10507;52.754;13.040;2023-01-26T06:28:25;101729.41;;;-0.55;100.00
20696;BME280;10507;52.754;13.040;2023-01-26T06:30:58;101716.25;;;-0.56;100.00
20696;BME280;10507;52.754;13.040;2023-01-26T06:33:26;101709.19;;;-0.64;100.00
20696;BME280;10507;52.754;13.040;2023-01-26T06:35:55;101747.72;;;-0.59;100.00
20696;BME280;10507;52.754;13.040;2023-01-26T06:38:23;101791.56;;;-0.49;100.00
20696;BME280;10507;52.754;13.040;2023-01-26T06:40:51;101761.81;;;-0.51;100.00
20696;BME280;10507;52.754;13.040;2023-01-26T06:43:19;101785.47;;;-0.48;100.00
20696;BME280;10507;52.754;13.040;2023-01-26T06:45:47;101777.63;;;-0.47;100.00
20696;BME280;10507;52.754;13.040;2023-01-26T06:48:15;101775.00;;;-0.47;100.00
20696;BME280;10507;52.754;13.040;2023-01-26T06:50:43;101773.22;;;-0.49;100.00
20696;BME280;10507;52.754;13.040;2023-01-26T06:53:25;101765.31;;;-0.51;100.00
20696;BME280;10507;52.754;13.040;2023-01-26T06:55:56;101809.94;;;-0.48;100.00
20696;BME280;10507;52.754;13.040;2023-01-26T06:58:24;101799.44;;;-0.48;100.00
20696;BME280;10507;52.754;13.040;2023-01-26T07:00:53;101859.91;;;-0.38;100.00
20696;BME280;10507;52.754;13.040;2023-01-26T07:03:21;101805.63;;;-0.44;100.00
20696;BME280;10507;52.754;13.040;2023-01-26T07:05:50;101809.09;;;-0.45;100.00
20696;BME280;10507;52.754;13.040;2023-01-26T07:08:17;101826.59;;;-0.46;100.00
20696;BME280;10507;52.754;13.040;2023-01-26T07:10:48;101849.41;;;-0.40;100.00
20696;BME280;10507;52.754;13.040;2023-01-26T07:13:16;101857.28;;;-0.38;100.00
20696;BME280;10507;52.754;13.040;2023-01-26T07:15:44;101787.13;;;-0.52;100.00
20696;BME280;10507;52.754;13.040;2023-01-26T07:18:12;101790.63;;;-0.53;100.00
20696;BME280;10507;52.754;13.040;2023-01-26T07:20:40;101740.66;;;-0.64;100.00
20696;BME280;10507;52.754;13.040;2023-01-26T07:23:08;101736.22;;;-0.69;100.00
20696;BME280;10507;52.754;13.040;2023-01-26T07:25:36;101756.25;;;-0.73;100.00
20696;BME280;10507;52.754;13.040;2023-01-26T07:28:06;101768.47;;;-0.75;100.00
20696;BME280;10507;52.754;13.040;2023-01-26T07:30:35;101784.31;;;-0.69;100.00
20696;BME280;10507;52.754;13.040;2023-01-26T07:33:03;101786.88;;;-0.70;100.00
20696;BME280;10507;52.754;13.040;2023-01-26T07:35:31;101719.41;;;-0.85;100.00
20696;BME280;10507;52.754;13.040;2023-01-26T07:37:59;101744.72;;;-0.87;100.00
20696;BME280;10507;52.754;13.040;2023-01-26T07:40:27;101751.63;;;-0.91;100.00
20696;BME280;10507;52.754;13.040;2023-01-26T07:42:55;101795.41;;;-0.87;100.00
20696;BME280;10507;52.754;13.040;2023-01-26T07:45:27;101805.91;;;-0.85;100.00
20696;BME280;10507;52.754;13.040;2023-01-26T07:47:55;101826.97;;;-0.80;100.00
20696;BME280;10507;52.754;13.040;2023-01-26T07:50:23;101795.34;;;-0.90;100.00
20696;BME280;10507;52.754;13.040;2023-01-26T07:52:52;101797.00;;;-0.95;100.00
20696;BME280;10507;52.754;13.040;2023-01-26T07:55:20;101860.13;;;-0.81;100.00
20696;BME280;10507;52.754;13.040;2023-01-26T07:57:53;101796.22;;;-0.89;100.00
20696;BME280;10507;52.754;13.040;2023-01-26T08:00:23;101869.06;;;-0.71;100.00
20696;BME280;10507;52.754;13.040;2023-01-26T08:02:52;101861.25;;;-0.65;100.00
20696;BME280;10507;52.754;13.040;2023-01-26T08:05:20;101861.44;;;-0.54;100.00
20696;BME280;10507;52.754;13.040;2023-01-26T08:07:48;101781.72;;;-0.67;100.00
20696;BME280;10507;52.754;13.040;2023-01-26T08:10:16;101810.72;;;-0.55;100.00
20696;BME280;10507;52.754;13.040;2023-01-26T08:12:44;101729.38;;;-0.58;100.00
20696;BME280;10507;52.754;13.040;2023-01-26T08:15:12;101687.34;;;-0.64;100.00
20696;BME280;10507;52.754;13.040;2023-01-26T08:17:40;101746.06;;;-0.50;100.00
20696;BME280;10507;52.754;13.040;2023-01-26T08:20:10;101713.69;;;-0.52;100.00
20696;BME280;10507;52.754;13.040;2023-01-26T08:22:39;101680.44;;;-0.56;100.00
20696;BME280;10507;52.754;13.040;2023-01-26T08:25:08;101647.19;;;-0.60;100.00
20696;BME280;10507;52.754;13.040;2023-01-26T08:27:36;101622.66;;;-0.62;100.00
20696;BME280;10507;52.754;13.040;2023-01-26T08:30:04;101594.63;;;-0.68;100.00
20696;BME280;10507;52.754;13.040;2023-01-26T08:32:33;101596.34;;;-0.71;100.00
20696;BME280;10507;52.754;13.040;2023-01-26T08:35:01;101653.28;;;-0.63;100.00
20696;BME280;10507;52.754;13.040;2023-01-26T08:37:30;101593.72;;;-0.70;100.00
20696;BME280;10507;52.754;13.040;2023-01-26T08:39:58;101619.13;;;-0.66;100.00
20696;BME280;10507;52.754;13.040;2023-01-26T08:42:26;101648.03;;;-0.63;100.00
20696;BME280;10507;52.754;13.040;2023-01-26T08:44:54;101684.03;;;-0.48;100.00
20696;BME280;10507;52.754;13.040;2023-01-26T08:47:22;101581.56;;;-0.65;100.00
20696;BME280;10507;52.754;13.040;2023-01-26T08:49:50;101616.50;;;-0.66;100.00
20696;BME280;10507;52.754;13.040;2023-01-26T08:52:18;101666.50;;;-0.53;100.00
20696;BME280;10507;52.754;13.040;2023-01-26T08:54:48;101613.03;;;-0.63;100.00
20696;BME280;10507;52.754;13.040;2023-01-26T08:57:16;101612.19;;;-0.59;100.00
20696;BME280;10507;52.754;13.040;2023-01-26T08:59:44;101670.97;;;-0.43;100.00
20696;BME280;10507;52.754;13.040;2023-01-26T09:02:12;101662.28;;;-0.39;100.00
20696;BME280;10507;52.754;13.040;2023-01-26T09:04:40;101632.56;;;-0.38;100.00
20696;BME280;10507;52.754;13.040;2023-01-26T09:07:11;101664.16;;;-0.26;100.00
20696;BME280;10507;52.754;13.040;2023-01-26T09:09:39;101588.88;;;-0.36;100.00
20696;BME280;10507;52.754;13.040;2023-01-26T09:12:08;101566.03;;;-0.45;100.00
20696;BME280;10507;52.754;13.040;2023-01-26T09:14:36;101609.81;;;-0.39;100.00
20696;BME280;10507;52.754;13.040;2023-01-26T09:17:04;101552.00;;;-0.48;100.00
20696;BME280;10507;52.754;13.040;2023-01-26T09:19:32;101565.13;;;-0.47;100.00
20696;BME280;10507;52.754;13.040;2023-01-26T09:22:00;101569.47;;;-0.47;100.00
20696;BME280;10507;52.754;13.040;2023-01-26T09:24:28;101651.88;;;-0.31;100.00
20696;BME280;10507;52.754;13.040;2023-01-26T09:26:56;101667.72;;;-0.21;100.00
20696;BME280;10507;52.754;13.040;2023-01-26T09:29:25;101679.16;;;-0.14;100.00
20696;BME280;10507;52.754;13.040;2023-01-26T09:31:53;101671.41;;;-0.03;100.00
20696;BME280;10507;52.754;13.040;2023-01-26T09:34:21;101671.44;;;0.02;100.00
20696;BME280;10507;52.754;13.040;2023-01-26T09:36:50;101639.03;;;-0.01;100.00
20696;BME280;10507;52.754;13.040;2023-01-26T09:39:18;101646.94;;;0.01;100.00
20696;BME280;10507;52.754;13.040;2023-01-26T09:41:54;101661.91;;;0.10;100.00
20696;BME280;10507;52.754;13.040;2023-01-26T09:44:30;101606.66;;;-0.01;100.00
20696;BME280;10507;52.754;13.040;2023-01-26T09:47:05;101562.78;;;-0.16;100.00
20696;BME280;10507;52.754;13.040;2023-01-26T09:49:45;101600.41;;;-0.14;100.00
20696;BME280;10507;52.754;13.040;2023-01-26T09:52:20;101607.41;;;-0.16;100.00
20696;BME280;10507;52.754;13.040;2023-01-26T09:54:52;101633.72;;;-0.10;100.00
20696;BME280;10507;52.754;13.040;2023-01-26T09:57:25;101667.91;;;-0.04;100.00
20696;BME280;10507;52.754;13.040;2023-01-26T10:00:00;101561.91;;;-0.19;100.00
20696;BME280;10507;52.754;13.040;2023-01-26T10:02:45;101546.16;;;-0.18;100.00
20696;BME280;10507;52.754;13.040;2023-01-26T10:05:21;101603.19;;;0.00;100.00
20696;BME280;10507;52.754;13.040;2023-01-26T10:07:52;101569.94;;;0.01;100.00
20696;BME280;10507;52.754;13.040;2023-01-26T10:10:27;101552.44;;;-0.02;100.00
20696;BME280;10507;52.754;13.040;2023-01-26T10:12:57;101515.59;;;-0.10;100.00
20696;BME280;10507;52.754;13.040;2023-01-26T10:15:33;101512.09;;;-0.13;100.00
20696;BME280;10507;52.754;13.040;2023-01-26T10:18:07;101509.47;;;-0.12;100.00
20696;BME280;10507;52.754;13.040;2023-01-26T10:20:38;101477.94;;;-0.15;100.00
20696;BME280;10507;52.754;13.040;2023-01-26T10:23:13;101539.34;;;0.06;100.00
20696;BME280;10507;52.754;13.040;2023-01-26T10:25:44;101471.94;;;0.02;100.00
20696;BME280;10507;52.754;13.040;2023-01-26T10:28:13;101539.41;;;0.18;100.00
20696;BME280;10507;52.754;13.040;2023-01-26T10:30:45;101430.81;;;0.07;100.00
20696;BME280;10507;52.754;13.040;2023-01-26T10:33:17;101511.44;;;0.18;100.00
20696;BME280;10507;52.754;13.040;2023-01-26T10:35:46;101453.66;;;0.14;100.00
20696;BME280;10507;52.754;13.040;2023-01-26T10:38:37;101460.69;;;0.21;100.00
20696;BME280;10507;52.754;13.040;2023-01-26T10:41:20;101414.25;;;0.17;100.00
20696;BME280;10507;52.754;13.040;2023-01-26T10:43:51;101415.16;;;0.22;100.00
20696;BME280;10507;52.754;13.040;2023-01-26T10:46:29;101496.63;;;0.36;100.00
20696;BME280;10507;52.754;13.040;2023-01-26T10:48:59;101449.34;;;0.36;100.00
20696;BME280;10507;52.754;13.040;2023-01-26T10:51:29;101452.00;;;0.34;100.00
20696;BME280;10507;52.754;13.040;2023-01-26T10:54:20;101435.38;;;0.37;100.00
20696;BME280;10507;52.754;13.040;2023-01-26T10:56:51;101441.53;;;0.47;100.00
20696;BME280;10507;52.754;13.040;2023-01-26T10:59:24;101438.94;;;0.50;100.00
20696;BME280;10507;52.754;13.040;2023-01-26T11:01:58;101490.66;;;0.66;100.00
20696;BME280;10507;52.754;13.040;2023-01-26T11:04:27;101502.97;;;0.73;100.00
20696;BME280;10507;52.754;13.040;2023-01-26T11:06:55;101406.56;;;0.60;100.00
20696;BME280;10507;52.754;13.040;2023-01-26T11:09:40;101368.00;;;0.48;100.00
20696;BME280;10507;52.754;13.040;2023-01-26T11:12:16;101360.97;;;0.39;100.00
20696;BME280;10507;52.754;13.040;2023-01-26T11:14:59;101476.66;;;0.64;100.00
20696;BME280;10507;52.754;13.040;2023-01-26T11:17:33;101443.38;;;0.66;100.00
20696;BME280;10507;52.754;13.040;2023-01-26T11:20:23;101355.75;;;0.52;100.00
20696;BME280;10507;52.754;13.040;2023-01-26T11:22:57;101396.00;;;0.54;100.00
20696;BME280;10507;52.754;13.040;2023-01-26T11:25:33;101412.69;;;0.54;100.00
20696;BME280;10507;52.754;13.040;2023-01-26T11:28:13;101324.16;;;0.33;100.00
20696;BME280;10507;52.754;13.040;2023-01-26T11:30:58;101392.47;;;0.38;100.00
20696;BME280;10507;52.754;13.040;2023-01-26T11:33:33;101386.31;;;0.36;100.00
20696;BME280;10507;52.754;13.040;2023-01-26T11:36:12;101380.16;;;0.26;100.00
20696;BME280;10507;52.754;13.040;2023-01-26T11:38:48;101346.88;;;0.22;100.00
20696;BME280;10507;52.754;13.040;2023-01-26T11:41:30;101396.78;;;0.20;100.00
20696;BME280;10507;52.754;13.040;2023-01-26T11:44:15;101395.88;;;0.20;100.00
20696;BME280;10507;52.754;13.040;2023-01-26T11:46:55;101423.91;;;0.24;100.00
20696;BME280;10507;52.754;13.040;2023-01-26T11:49:38;101266.22;;;-0.19;100.00
20696;BME280;10507;52.754;13.040;2023-01-26T11:52:15;101373.78;;;-0.27;100.00
20696;BME280;10507;52.754;13.040;2023-01-26T11:55:03;101452.59;;;-0.13;100.00
20696;BME280;10507;52.754;13.040;2023-01-26T11:57:36;101407.94;;;-0.22;100.00
20696;BME280;10507;52.754;13.040;2023-01-26T12:00:14;101421.00;;;-0.31;100.00
20696;BME280;10507;52.754;13.040;2023-01-26T12:02:59;101373.66;;;-0.47;100.00
20696;BME280;10507;52.754;13.040;2023-01-26T12:05:35;101431.41;;;-0.42;100.00
20696;BME280;10507;52.754;13.040;2023-01-26T12:08:14;101532.97;;;-0.26;100.00
20696;BME280;10507;52.754;13.040;2023-01-26T12:10:47;101522.47;;;-0.23;100.00
20696;BME280;10507;52.754;13.040;2023-01-26T12:13:26;101489.22;;;-0.31;100.00
20696;BME280;10507;52.754;13.040;2023-01-26T12:16:01;101417.34;;;-0.47;100.00
20696;BME280;10507;52.754;13.040;2023-01-26T12:18:34;101423.44;;;-0.53;100.00
20696;BME280;10507;52.754;13.040;2023-01-26T12:21:22;101443.59;;;-0.49;100.00
20696;BME280;10507;52.754;13.040;2023-01-26T12:23:57;101455.78;;;-0.52;100.00
20696;BME280;10507;52.754;13.040;2023-01-26T12:26:29;101460.09;;;-0.59;100.00
20696;BME280;10507;52.754;13.040;2023-01-26T12:29:03;101464.47;;;-0.56;100.00
20696;BME280;10507;52.754;13.040;2023-01-26T12:31:40;101471.53;;;-0.54;100.00
20696;BME280;10507;52.754;13.040;2023-01-26T12:34:13;101523.19;;;-0.44;100.00
20696;BME280;10507;52.754;13.040;2023-01-26T12:36:47;101533.75;;;-0.34;100.00
20696;BME280;10507;52.754;13.040;2023-01-26T12:39:21;101447.94;;;-0.48;100.00
20696;BME280;10507;52.754;13.040;2023-01-26T12:42:02;101386.63;;;-0.67;100.00
20696;BME280;10507;52.754;13.040;2023-01-26T12:44:36;101413.66;;;-0.72;100.00
20696;BME280;10507;52.754;13.040;2023-01-26T12:47:11;101495.94;;;-0.56;100.00
20696;BME280;10507;52.754;13.040;2023-01-26T12:49:45;101555.53;;;-0.43;100.00
20696;BME280;10507;52.754;13.040;2023-01-26T12:52:21;101554.75;;;-0.34;100.00
20696;BME280;10507;52.754;13.040;2023-01-26T12:54:56;101525.94;;;-0.30;100.00
20696;BME280;10507;52.754;13.040;2023-01-26T12:57:39;101508.41;;;-0.32;100.00